createdAt,value
2022-12-19T00:00:00.415Z,1016.28
2022-12-19T00:01:00.416Z,1016.23
2022-12-19T00:02:00.489Z,1016.29
2022-12-19T00:03:00.594Z,1016.24
2022-12-19T00:04:00.440Z,1016.16
2022-12-19T00:05:00.355Z,1016.18
2022-12-19T00:06:00.373Z,1016.14
2022-12-19T00:07:00.328Z,1016.12
2022-12-19T00:08:00.564Z,1016.09
2022-12-19T00:09:00.343Z,1016.11
2022-12-19T00:10:00.330Z,1016.09
2022-12-19T00:11:06.909Z,1016.08
2022-12-19T00:12:00.309Z,1016.13
2022-12-19T00:13:00.288Z,1016.04
2022-12-19T00:14:00.297Z,1016.08
2022-12-19T00:15:00.250Z,1016.06
2022-12-19T00:16:00.356Z,1016.00
2022-12-19T00:17:00.234Z,1015.97
2022-12-19T00:18:00.222Z,1016.01
2022-12-19T00:19:00.235Z,1016.04
2022-12-19T00:20:00.204Z,1016.05
2022-12-19T00:21:00.208Z,1016.08
2022-12-19T00:22:00.188Z,1016.09
2022-12-19T00:23:00.164Z,1016.14
2022-12-19T00:24:00.168Z,1016.20
2022-12-19T00:25:00.162Z,1016.13
2022-12-19T00:26:00.160Z,1016.16
2022-12-19T00:27:00.130Z,1016.08
2022-12-19T00:28:00.126Z,1016.12
2022-12-19T00:29:00.114Z,1016.04
2022-12-19T00:30:00.153Z,1016.08
2022-12-19T00:31:00.108Z,1016.03
2022-12-19T00:32:00.232Z,1015.98
2022-12-19T00:33:00.108Z,1016.07
2022-12-19T00:34:00.093Z,1016.11
2022-12-19T00:35:00.043Z,1016.12
2022-12-19T00:36:00.073Z,1016.14
2022-12-19T00:37:00.044Z,1016.13
2022-12-19T00:38:00.025Z,1016.14
2022-12-19T00:39:00.049Z,1016.06
2022-12-19T00:40:00.017Z,1015.93
2022-12-19T00:41:06.511Z,1015.92
2022-12-19T00:41:59.983Z,1015.90
2022-12-19T00:42:59.997Z,1015.82
2022-12-19T00:43:59.966Z,1015.81
2022-12-19T00:44:59.974Z,1015.80
2022-12-19T00:46:00.022Z,1015.82
2022-12-19T00:46:59.965Z,1015.74
2022-12-19T00:47:59.929Z,1015.76
2022-12-19T00:48:59.947Z,1015.73
2022-12-19T00:49:59.922Z,1015.75
2022-12-19T00:50:59.888Z,1015.76
2022-12-19T00:51:59.897Z,1015.72
2022-12-19T00:52:59.893Z,1015.71
2022-12-19T00:53:59.897Z,1015.69
2022-12-19T00:54:59.909Z,1015.71
2022-12-19T00:55:59.871Z,1015.67
2022-12-19T00:56:59.842Z,1015.66
2022-12-19T00:57:59.850Z,1015.63
2022-12-19T00:58:59.847Z,1015.57
2022-12-19T00:59:59.810Z,1015.64
2022-12-19T01:01:06.409Z,1015.62
2022-12-19T01:01:59.881Z,1015.66
2022-12-19T01:02:59.910Z,1015.56
2022-12-19T01:04:59.777Z,1015.54
2022-12-19T01:05:59.772Z,1015.56
2022-12-19T01:07:02.481Z,1015.52
2022-12-19T01:07:59.746Z,1015.53
2022-12-19T01:08:59.738Z,1015.55
2022-12-19T01:09:59.747Z,1015.56
2022-12-19T01:10:59.708Z,1015.53
2022-12-19T01:11:59.691Z,1015.46
2022-12-19T01:12:59.688Z,1015.48
2022-12-19T01:13:59.673Z,1015.51
2022-12-19T01:15:04.286Z,1015.43
2022-12-19T01:15:59.704Z,1015.54
2022-12-19T01:16:59.627Z,1015.67
2022-12-19T01:17:59.645Z,1015.70
2022-12-19T01:18:59.609Z,1015.68
2022-12-19T01:19:59.613Z,1015.68
2022-12-19T01:21:06.119Z,1015.58
2022-12-19T01:21:59.605Z,1015.62
2022-12-19T01:23:00.526Z,1015.60
2022-12-19T01:23:59.573Z,1015.62
2022-12-19T01:24:59.571Z,1015.60
2022-12-19T01:25:59.807Z,1015.60
2022-12-19T01:26:59.538Z,1015.60
2022-12-19T01:27:59.531Z,1015.52
2022-12-19T01:28:59.523Z,1015.51
2022-12-19T01:29:59.501Z,1015.50
2022-12-19T01:30:59.495Z,1015.49
2022-12-19T01:31:59.595Z,1015.48
2022-12-19T01:32:59.489Z,1015.45
2022-12-19T01:33:59.481Z,1015.43
2022-12-19T01:34:59.451Z,1015.42
2022-12-19T01:35:59.439Z,1015.41
2022-12-19T01:36:59.423Z,1015.30
2022-12-19T01:38:07.739Z,1015.30
2022-12-19T01:38:59.409Z,1015.24
2022-12-19T01:39:59.408Z,1015.24
2022-12-19T01:40:59.412Z,1015.26
2022-12-19T01:41:59.386Z,1015.23
2022-12-19T01:42:59.385Z,1015.20
2022-12-19T01:43:59.356Z,1015.21
2022-12-19T01:44:59.427Z,1015.20
2022-12-19T01:45:59.428Z,1015.28
2022-12-19T01:46:59.337Z,1015.28
2022-12-19T01:47:59.316Z,1015.25
2022-12-19T01:48:59.299Z,1015.26
2022-12-19T01:49:59.294Z,1015.25
2022-12-19T01:51:01.302Z,1015.30
2022-12-19T01:51:59.265Z,1015.32
2022-12-19T01:52:59.268Z,1015.26
2022-12-19T01:53:59.240Z,1015.29
2022-12-19T01:54:59.263Z,1015.18
2022-12-19T01:55:59.252Z,1015.24
2022-12-19T01:56:59.192Z,1015.26
2022-12-19T01:57:59.174Z,1015.26
2022-12-19T01:59:05.775Z,1015.20
2022-12-19T01:59:59.184Z,1015.20
2022-12-19T02:01:05.816Z,1015.16
2022-12-19T02:01:59.461Z,1015.17
2022-12-19T02:02:59.340Z,1015.18
2022-12-19T02:03:59.161Z,1015.09
2022-12-19T02:04:59.135Z,1015.10
2022-12-19T02:05:59.113Z,1015.05
2022-12-19T02:06:59.114Z,1015.07
2022-12-19T02:07:59.102Z,1015.05
2022-12-19T02:08:59.099Z,1015.08
2022-12-19T02:09:59.056Z,1015.07
2022-12-19T02:10:59.067Z,1015.09
2022-12-19T02:11:59.053Z,1015.13
2022-12-19T02:12:59.035Z,1015.06
2022-12-19T02:13:59.029Z,1015.12
2022-12-19T02:15:03.143Z,1015.07
2022-12-19T02:15:59.003Z,1015.05
2022-12-19T02:16:59.068Z,1015.05
2022-12-19T02:17:58.974Z,1015.06
2022-12-19T02:18:59.006Z,1015.02
2022-12-19T02:19:58.957Z,1015.05
2022-12-19T02:20:58.974Z,1015.01
2022-12-19T02:21:58.946Z,1015.01
2022-12-19T02:22:58.961Z,1014.99
2022-12-19T02:23:58.945Z,1015.04
2022-12-19T02:24:58.928Z,1014.97
2022-12-19T02:25:59.127Z,1014.95
2022-12-19T02:26:58.894Z,1014.94
2022-12-19T02:27:58.889Z,1014.92
2022-12-19T02:29:05.415Z,1014.95
2022-12-19T02:29:58.875Z,1014.96
2022-12-19T02:31:05.391Z,1014.82
2022-12-19T02:31:58.874Z,1014.88
2022-12-19T02:32:58.850Z,1014.80
2022-12-19T02:33:58.884Z,1014.77
2022-12-19T02:34:58.816Z,1014.75
2022-12-19T02:35:58.797Z,1014.70
2022-12-19T02:36:58.790Z,1014.69
2022-12-19T02:37:58.795Z,1014.69
2022-12-19T02:38:58.777Z,1014.79
2022-12-19T02:39:58.795Z,1014.74
2022-12-19T02:40:58.776Z,1014.74
2022-12-19T02:41:58.746Z,1014.82
2022-12-19T02:42:58.774Z,1014.76
2022-12-19T02:43:59.213Z,1014.71
2022-12-19T02:44:58.709Z,1014.67
2022-12-19T02:45:58.707Z,1014.69
2022-12-19T02:46:58.703Z,1014.55
2022-12-19T02:47:58.691Z,1014.54
2022-12-19T02:48:58.676Z,1014.51
2022-12-19T02:49:58.672Z,1014.54
2022-12-19T02:50:58.687Z,1014.56
2022-12-19T02:51:58.629Z,1014.54
2022-12-19T02:52:58.626Z,1014.53
2022-12-19T02:53:58.630Z,1014.57
2022-12-19T02:54:58.590Z,1014.54
2022-12-19T02:55:58.605Z,1014.47
2022-12-19T02:56:58.627Z,1014.53
2022-12-19T02:57:58.568Z,1014.43
2022-12-19T02:58:58.605Z,1014.48
2022-12-19T02:59:58.571Z,1014.53
2022-12-19T03:00:58.591Z,1014.54
2022-12-19T03:01:58.731Z,1014.56
2022-12-19T03:03:01.022Z,1014.51
2022-12-19T03:03:58.517Z,1014.46
2022-12-19T03:04:58.541Z,1014.48
2022-12-19T03:05:58.491Z,1014.43
2022-12-19T03:06:58.486Z,1014.39
2022-12-19T03:07:58.458Z,1014.44
2022-12-19T03:08:58.459Z,1014.47
2022-12-19T03:09:58.453Z,1014.50
2022-12-19T03:10:58.457Z,1014.37
2022-12-19T03:11:58.431Z,1014.36
2022-12-19T03:12:58.401Z,1014.40
2022-12-19T03:13:58.399Z,1014.39
2022-12-19T03:14:58.380Z,1014.37
2022-12-19T03:15:58.375Z,1014.35
2022-12-19T03:16:58.391Z,1014.34
2022-12-19T03:17:58.356Z,1014.29
2022-12-19T03:18:58.358Z,1014.31
2022-12-19T03:19:58.311Z,1014.33
2022-12-19T03:20:58.348Z,1014.24
2022-12-19T03:21:58.310Z,1014.29
2022-12-19T03:22:58.292Z,1014.23
2022-12-19T03:23:58.271Z,1014.21
2022-12-19T03:24:58.292Z,1014.15
2022-12-19T03:25:58.259Z,1014.11
2022-12-19T03:26:58.251Z,1014.17
2022-12-19T03:27:58.252Z,1014.12
2022-12-19T03:28:58.225Z,1014.16
2022-12-19T03:29:58.203Z,1014.21
2022-12-19T03:30:58.253Z,1014.27
2022-12-19T03:31:58.225Z,1014.27
2022-12-19T03:32:58.179Z,1014.17
2022-12-19T03:33:58.185Z,1014.09
2022-12-19T03:34:58.178Z,1014.13
2022-12-19T03:35:58.197Z,1014.15
2022-12-19T03:36:58.170Z,1014.15
2022-12-19T03:37:58.157Z,1014.08
2022-12-19T03:38:58.110Z,1014.09
2022-12-19T03:39:58.142Z,1014.12
2022-12-19T03:40:58.122Z,1014.08
2022-12-19T03:41:58.150Z,1014.17
2022-12-19T03:42:58.070Z,1014.14
2022-12-19T03:43:58.064Z,1014.07
2022-12-19T03:44:58.067Z,1014.12
2022-12-19T03:45:58.100Z,1014.12
2022-12-19T03:46:58.053Z,1014.03
2022-12-19T03:47:58.025Z,1014.00
2022-12-19T03:48:58.023Z,1013.92
2022-12-19T03:49:58.027Z,1013.93
2022-12-19T03:50:58.019Z,1013.89
2022-12-19T03:51:59.596Z,1013.88
2022-12-19T03:52:57.987Z,1013.82
2022-12-19T03:53:57.962Z,1013.84
2022-12-19T03:54:57.940Z,1013.89
2022-12-19T03:55:57.938Z,1013.79
2022-12-19T03:56:58.794Z,1013.84
2022-12-19T03:57:57.921Z,1013.83
2022-12-19T03:58:57.928Z,1013.85
2022-12-19T03:59:57.934Z,1013.83
2022-12-19T04:00:58.321Z,1013.82
2022-12-19T04:01:57.944Z,1013.82
2022-12-19T04:02:57.891Z,1013.80
2022-12-19T04:03:57.932Z,1013.79
2022-12-19T04:04:57.858Z,1013.84
2022-12-19T04:05:57.834Z,1013.79
2022-12-19T04:06:57.892Z,1013.75
2022-12-19T04:07:57.830Z,1013.83
2022-12-19T04:08:57.793Z,1013.81
2022-12-19T04:09:57.806Z,1013.75
2022-12-19T04:10:57.790Z,1013.85
2022-12-19T04:11:57.790Z,1013.71
2022-12-19T04:12:57.776Z,1013.74
2022-12-19T04:13:57.759Z,1013.75
2022-12-19T04:14:57.750Z,1013.73
2022-12-19T04:15:57.783Z,1013.78
2022-12-19T04:16:57.710Z,1013.70
2022-12-19T04:17:57.714Z,1013.73
2022-12-19T04:18:57.709Z,1013.70
2022-12-19T04:19:57.697Z,1013.68
2022-12-19T04:20:57.704Z,1013.64
2022-12-19T04:21:57.669Z,1013.69
2022-12-19T04:22:57.658Z,1013.71
2022-12-19T04:23:57.649Z,1013.68
2022-12-19T04:24:57.741Z,1013.64
2022-12-19T04:25:57.635Z,1013.61
2022-12-19T04:26:57.637Z,1013.57
2022-12-19T04:27:57.604Z,1013.61
2022-12-19T04:28:57.616Z,1013.57
2022-12-19T04:29:57.606Z,1013.65
2022-12-19T04:30:57.594Z,1013.59
2022-12-19T04:31:57.561Z,1013.57
2022-12-19T04:32:57.555Z,1013.55
2022-12-19T04:33:57.534Z,1013.54
2022-12-19T04:34:57.535Z,1013.49
2022-12-19T04:35:57.507Z,1013.48
2022-12-19T04:36:57.495Z,1013.48
2022-12-19T04:37:57.551Z,1013.48
2022-12-19T04:38:57.501Z,1013.49
2022-12-19T04:39:57.505Z,1013.46
2022-12-19T04:41:03.989Z,1013.45
2022-12-19T04:41:57.444Z,1013.51
2022-12-19T04:42:57.432Z,1013.54
2022-12-19T04:43:57.461Z,1013.56
2022-12-19T04:44:57.473Z,1013.47
2022-12-19T04:45:57.913Z,1013.57
2022-12-19T04:46:57.382Z,1013.56
2022-12-19T04:47:57.380Z,1013.62
2022-12-19T04:48:57.384Z,1013.55
2022-12-19T04:49:57.373Z,1013.52
2022-12-19T04:50:57.361Z,1013.60
2022-12-19T04:51:57.358Z,1013.65
2022-12-19T04:52:57.408Z,1013.55
2022-12-19T04:53:57.329Z,1013.61
2022-12-19T04:54:57.301Z,1013.57
2022-12-19T04:55:57.278Z,1013.61
2022-12-19T04:56:57.265Z,1013.61
2022-12-19T04:57:57.268Z,1013.57
2022-12-19T04:58:57.253Z,1013.63
2022-12-19T04:59:57.303Z,1013.58
2022-12-19T05:00:57.217Z,1013.69
2022-12-19T05:01:57.284Z,1013.65
2022-12-19T05:02:57.420Z,1013.67
2022-12-19T05:04:02.817Z,1013.67
2022-12-19T05:04:57.218Z,1013.68
2022-12-19T05:05:57.201Z,1013.72
2022-12-19T05:06:57.167Z,1013.73
2022-12-19T05:07:57.157Z,1013.72
2022-12-19T05:08:57.188Z,1013.70
2022-12-19T05:09:57.141Z,1013.72
2022-12-19T05:11:03.692Z,1013.68
2022-12-19T05:11:57.124Z,1013.70
2022-12-19T05:12:57.109Z,1013.60
2022-12-19T05:13:57.082Z,1013.58
2022-12-19T05:14:57.077Z,1013.60
2022-12-19T05:15:57.143Z,1013.54
2022-12-19T05:17:01.302Z,1013.45
2022-12-19T05:17:57.062Z,1013.43
2022-12-19T05:18:57.038Z,1013.39
2022-12-19T05:19:57.033Z,1013.42
2022-12-19T05:20:57.010Z,1013.40
2022-12-19T05:21:56.988Z,1013.43
2022-12-19T05:22:56.978Z,1013.39
2022-12-19T05:23:56.992Z,1013.44
2022-12-19T05:24:56.973Z,1013.47
2022-12-19T05:25:56.954Z,1013.43
2022-12-19T05:26:56.959Z,1013.45
2022-12-19T05:27:56.916Z,1013.47
2022-12-19T05:28:56.929Z,1013.45
2022-12-19T05:29:57.038Z,1013.47
2022-12-19T05:31:04.030Z,1013.46
2022-12-19T05:31:57.334Z,1013.45
2022-12-19T05:32:56.863Z,1013.44
2022-12-19T05:33:56.852Z,1013.45
2022-12-19T05:34:56.894Z,1013.50
2022-12-19T05:35:56.835Z,1013.48
2022-12-19T05:36:56.809Z,1013.49
2022-12-19T05:37:56.832Z,1013.46
2022-12-19T05:38:56.808Z,1013.42
2022-12-19T05:39:56.904Z,1013.47
2022-12-19T05:40:56.764Z,1013.50
2022-12-19T05:41:56.785Z,1013.46
2022-12-19T05:42:56.759Z,1013.49
2022-12-19T05:43:56.737Z,1013.44
2022-12-19T05:44:56.869Z,1013.44
2022-12-19T05:45:56.710Z,1013.49
2022-12-19T05:46:56.780Z,1013.35
2022-12-19T05:48:01.162Z,1013.42
2022-12-19T05:48:56.680Z,1013.42
2022-12-19T05:49:56.690Z,1013.32
2022-12-19T05:51:03.184Z,1013.37
2022-12-19T05:51:56.668Z,1013.42
2022-12-19T05:52:56.628Z,1013.38
2022-12-19T05:53:56.637Z,1013.40
2022-12-19T05:54:56.689Z,1013.36
2022-12-19T05:55:56.621Z,1013.42
2022-12-19T05:56:56.576Z,1013.46
2022-12-19T05:57:56.620Z,1013.38
2022-12-19T05:58:56.577Z,1013.42
2022-12-19T05:59:56.544Z,1013.36
2022-12-19T06:01:00.678Z,1013.34
2022-12-19T06:01:56.576Z,1013.45
2022-12-19T06:02:56.723Z,1013.48
2022-12-19T06:03:56.556Z,1013.47
2022-12-19T06:04:56.586Z,1013.55
2022-12-19T06:05:56.513Z,1013.52
2022-12-19T06:06:56.472Z,1013.50
2022-12-19T06:07:56.450Z,1013.56
2022-12-19T06:08:56.447Z,1013.50
2022-12-19T06:09:56.533Z,1013.55
2022-12-19T06:10:56.485Z,1013.51
2022-12-19T06:11:56.433Z,1013.58
2022-12-19T06:12:56.402Z,1013.55
2022-12-19T06:13:56.398Z,1013.55
2022-12-19T06:14:56.477Z,1013.59
2022-12-19T06:15:56.466Z,1013.63
2022-12-19T06:16:56.360Z,1013.65
2022-12-19T06:17:56.366Z,1013.63
2022-12-19T06:18:56.325Z,1013.67
2022-12-19T06:19:56.471Z,1013.60
2022-12-19T06:20:56.310Z,1013.55
2022-12-19T06:21:56.309Z,1013.56
2022-12-19T06:22:56.286Z,1013.59
2022-12-19T06:23:56.270Z,1013.57
2022-12-19T06:24:56.278Z,1013.57
2022-12-19T06:25:56.235Z,1013.58
2022-12-19T06:26:56.246Z,1013.66
2022-12-19T06:27:56.246Z,1013.59
2022-12-19T06:28:56.223Z,1013.64
2022-12-19T06:29:56.198Z,1013.58
2022-12-19T06:30:56.206Z,1013.58
2022-12-19T06:31:56.202Z,1013.62
2022-12-19T06:32:56.188Z,1013.62
2022-12-19T06:33:56.163Z,1013.61
2022-12-19T06:35:04.005Z,1013.54
2022-12-19T06:35:56.140Z,1013.63
2022-12-19T06:36:56.121Z,1013.66
2022-12-19T06:38:00.841Z,1013.63
2022-12-19T06:38:57.515Z,1013.61
2022-12-19T06:39:56.078Z,1013.61
2022-12-19T06:40:56.087Z,1013.68
2022-12-19T06:41:56.124Z,1013.67
2022-12-19T06:42:56.047Z,1013.69
2022-12-19T06:43:56.035Z,1013.68
2022-12-19T06:44:56.486Z,1013.72
2022-12-19T06:45:56.062Z,1013.69
2022-12-19T06:46:59.049Z,1013.73
2022-12-19T06:47:55.993Z,1013.76
2022-12-19T06:48:56.004Z,1013.74
2022-12-19T06:49:56.937Z,1013.74
2022-12-19T06:50:55.982Z,1013.70
2022-12-19T06:51:55.971Z,1013.70
2022-12-19T06:52:55.924Z,1013.60
2022-12-19T06:53:55.951Z,1013.61
2022-12-19T06:54:55.903Z,1013.69
2022-12-19T06:55:55.909Z,1013.61
2022-12-19T06:56:55.887Z,1013.66
2022-12-19T06:57:55.877Z,1013.68
2022-12-19T06:58:55.870Z,1013.68
2022-12-19T06:59:55.871Z,1013.79
2022-12-19T07:01:02.470Z,1013.76
2022-12-19T07:01:55.940Z,1013.74
2022-12-19T07:02:55.860Z,1013.72
2022-12-19T07:03:55.811Z,1013.69
2022-12-19T07:04:55.820Z,1013.65
2022-12-19T07:05:55.795Z,1013.67
2022-12-19T07:06:55.789Z,1013.70
2022-12-19T07:07:55.761Z,1013.70
2022-12-19T07:08:55.798Z,1013.68
2022-12-19T07:09:55.736Z,1013.67
2022-12-19T07:10:55.844Z,1013.72
2022-12-19T07:11:55.714Z,1013.68
2022-12-19T07:12:55.807Z,1013.68
2022-12-19T07:13:55.697Z,1013.67
2022-12-19T07:14:55.729Z,1013.67
2022-12-19T07:15:55.858Z,1013.69
2022-12-19T07:16:55.648Z,1013.67
2022-12-19T07:17:55.643Z,1013.71
2022-12-19T07:18:55.620Z,1013.74
2022-12-19T07:19:55.636Z,1013.72
2022-12-19T07:20:55.645Z,1013.78
2022-12-19T07:21:55.595Z,1013.82
2022-12-19T07:22:55.592Z,1013.79
2022-12-19T07:23:55.554Z,1013.80
2022-12-19T07:24:55.579Z,1013.87
2022-12-19T07:25:55.533Z,1013.82
2022-12-19T07:26:55.556Z,1013.84
2022-12-19T07:27:55.520Z,1013.86
2022-12-19T07:28:55.531Z,1013.91
2022-12-19T07:29:55.483Z,1013.85
2022-12-19T07:31:02.052Z,1013.82
2022-12-19T07:31:55.710Z,1013.83
2022-12-19T07:32:55.469Z,1013.92
2022-12-19T07:33:55.459Z,1013.86
2022-12-19T07:34:55.462Z,1013.91
2022-12-19T07:35:55.412Z,1013.90
2022-12-19T07:36:55.411Z,1013.95
2022-12-19T07:37:55.393Z,1013.94
2022-12-19T07:38:55.392Z,1013.89
2022-12-19T07:39:55.383Z,1013.86
2022-12-19T07:40:55.366Z,1013.84
2022-12-19T07:41:55.359Z,1013.95
2022-12-19T07:42:55.344Z,1013.96
2022-12-19T07:43:55.361Z,1013.95
2022-12-19T07:44:55.318Z,1013.92
2022-12-19T07:45:55.455Z,1013.95
2022-12-19T07:46:55.302Z,1013.93
2022-12-19T07:47:55.306Z,1013.98
2022-12-19T07:48:55.278Z,1014.01
2022-12-19T07:49:55.252Z,1014.00
2022-12-19T07:51:01.796Z,1013.99
2022-12-19T07:51:55.231Z,1013.94
2022-12-19T07:52:55.293Z,1013.98
2022-12-19T07:53:55.206Z,1014.00
2022-12-19T07:54:55.205Z,1013.96
2022-12-19T07:55:55.190Z,1013.96
2022-12-19T07:56:55.199Z,1014.00
2022-12-19T07:57:55.160Z,1014.02
2022-12-19T07:58:55.424Z,1013.95
2022-12-19T07:59:55.156Z,1013.93
2022-12-19T08:00:55.166Z,1013.88
2022-12-19T08:01:55.311Z,1013.93
2022-12-19T08:02:55.223Z,1013.98
2022-12-19T08:03:55.107Z,1013.94
2022-12-19T08:04:55.113Z,1013.96
2022-12-19T08:05:55.071Z,1013.92
2022-12-19T08:06:55.079Z,1013.94
2022-12-19T08:07:55.050Z,1013.86
2022-12-19T08:08:55.084Z,1013.91
2022-12-19T08:09:55.054Z,1013.91
2022-12-19T08:10:55.040Z,1013.84
2022-12-19T08:11:55.023Z,1013.88
2022-12-19T08:12:55.017Z,1013.91
2022-12-19T08:13:55.018Z,1013.85
2022-12-19T08:14:57.281Z,1013.86
2022-12-19T08:15:54.959Z,1013.83
2022-12-19T08:17:19.808Z,1013.76
2022-12-19T08:17:54.991Z,1013.79
2022-12-19T08:18:54.939Z,1013.85
2022-12-19T08:19:54.969Z,1013.85
2022-12-19T08:20:54.929Z,1013.84
2022-12-19T08:21:54.931Z,1013.84
2022-12-19T08:22:54.887Z,1013.86
2022-12-19T08:23:54.887Z,1013.87
2022-12-19T08:24:54.861Z,1013.88
2022-12-19T08:25:54.879Z,1013.90
2022-12-19T08:26:54.895Z,1013.82
2022-12-19T08:27:54.835Z,1013.84
2022-12-19T08:28:54.849Z,1013.80
2022-12-19T08:29:54.820Z,1013.79
2022-12-19T08:30:54.944Z,1013.72
2022-12-19T08:31:54.795Z,1013.78
2022-12-19T08:32:54.819Z,1013.79
2022-12-19T08:33:54.799Z,1013.81
2022-12-19T08:34:54.752Z,1013.74
2022-12-19T08:35:54.764Z,1013.79
2022-12-19T08:36:54.728Z,1013.84
2022-12-19T08:37:54.739Z,1013.79
2022-12-19T08:38:54.730Z,1013.83
2022-12-19T08:39:54.701Z,1013.85
2022-12-19T08:40:54.705Z,1013.80
2022-12-19T08:41:54.695Z,1013.78
2022-12-19T08:42:54.680Z,1013.74
2022-12-19T08:43:54.672Z,1013.64
2022-12-19T08:44:54.640Z,1013.68
2022-12-19T08:45:54.744Z,1013.64
2022-12-19T08:46:54.663Z,1013.70
2022-12-19T08:47:54.653Z,1013.65
2022-12-19T08:48:54.604Z,1013.68
2022-12-19T08:49:54.604Z,1013.64
2022-12-19T08:50:54.596Z,1013.71
2022-12-19T08:51:54.570Z,1013.70
2022-12-19T08:52:54.604Z,1013.71
2022-12-19T08:53:54.557Z,1013.69
2022-12-19T08:54:54.554Z,1013.72
2022-12-19T08:55:54.514Z,1013.77
2022-12-19T08:56:54.540Z,1013.73
2022-12-19T08:57:54.530Z,1013.74
2022-12-19T08:58:54.515Z,1013.72
2022-12-19T08:59:54.470Z,1013.82
2022-12-19T09:00:58.902Z,1013.77
2022-12-19T09:01:54.583Z,1013.80
2022-12-19T09:02:54.539Z,1013.80
2022-12-19T09:05:11.787Z,1013.76
2022-12-19T09:06:08.140Z,1013.76
2022-12-19T09:06:18.628Z,1013.75
2022-12-19T09:07:15.519Z,1013.73
2022-12-19T09:08:13.468Z,1013.75
2022-12-19T09:09:13.463Z,1013.72
2022-12-19T09:10:13.438Z,1013.74
2022-12-19T09:11:13.419Z,1013.79
2022-12-19T09:12:13.407Z,1013.75
2022-12-19T09:13:13.431Z,1013.75
2022-12-19T09:14:13.373Z,1013.80
2022-12-19T09:15:13.395Z,1013.79
2022-12-19T09:16:13.421Z,1013.76
2022-12-19T09:17:13.443Z,1013.82
2022-12-19T09:18:13.352Z,1013.80
2022-12-19T09:19:13.355Z,1013.78
2022-12-19T09:20:15.790Z,1013.74
2022-12-19T09:21:13.324Z,1013.77
2022-12-19T09:22:13.319Z,1013.70
2022-12-19T09:23:13.295Z,1013.63
2022-12-19T09:24:13.302Z,1013.61
2022-12-19T09:25:13.289Z,1013.62
2022-12-19T09:26:13.275Z,1013.62
2022-12-19T09:27:14.165Z,1013.56
2022-12-19T09:28:28.689Z,1013.58
2022-12-19T09:29:19.774Z,1013.57
2022-12-19T09:30:13.250Z,1013.45
2022-12-19T09:31:13.239Z,1013.55
2022-12-19T09:32:13.216Z,1013.63
2022-12-19T09:33:13.208Z,1013.67
2022-12-19T09:34:13.204Z,1013.63
2022-12-19T09:35:13.574Z,1013.71
2022-12-19T09:36:13.159Z,1013.71
2022-12-19T09:37:16.323Z,1013.67
2022-12-19T09:38:13.119Z,1013.62
2022-12-19T09:39:13.122Z,1013.61
2022-12-19T09:40:13.127Z,1013.62
2022-12-19T09:41:19.652Z,1013.60
2022-12-19T09:42:13.102Z,1013.61
2022-12-19T09:43:13.058Z,1013.63
2022-12-19T09:44:13.078Z,1013.55
2022-12-19T09:45:14.681Z,1013.63
2022-12-19T09:46:13.144Z,1013.55
2022-12-19T09:47:13.096Z,1013.52
2022-12-19T09:48:17.753Z,1013.48
2022-12-19T09:49:13.015Z,1013.44
2022-12-19T09:50:13.013Z,1013.39
2022-12-19T09:51:12.984Z,1013.41
2022-12-19T09:52:12.980Z,1013.34
2022-12-19T09:53:12.983Z,1013.39
2022-12-19T09:54:12.980Z,1013.40
2022-12-19T09:55:13.969Z,1013.45
2022-12-19T09:56:12.946Z,1013.40
2022-12-19T09:57:12.938Z,1013.28
2022-12-19T09:58:12.926Z,1013.30
2022-12-19T09:59:12.951Z,1013.25
2022-12-19T10:00:12.899Z,1013.26
2022-12-19T10:01:12.901Z,1013.26
2022-12-19T10:02:14.078Z,1013.30
2022-12-19T10:03:13.147Z,1013.29
2022-12-19T10:04:12.856Z,1013.21
2022-12-19T10:05:32.304Z,1013.15
2022-12-19T10:07:12.990Z,1013.23
2022-12-19T10:07:54.728Z,1013.15
2022-12-19T10:08:12.840Z,1013.19
2022-12-19T10:10:16.537Z,1013.16
2022-12-19T10:12:51.079Z,1013.28
2022-12-19T10:12:59.616Z,1013.33
2022-12-19T10:13:51.340Z,1013.37
2022-12-19T10:14:51.350Z,1013.42
2022-12-19T10:16:00.362Z,1013.38
2022-12-19T10:17:22.056Z,1013.36
2022-12-19T10:17:51.366Z,1013.37
2022-12-19T10:18:56.498Z,1013.41
2022-12-19T10:19:51.290Z,1013.36
2022-12-19T10:20:51.269Z,1013.41
2022-12-19T10:22:16.903Z,1013.30
2022-12-19T10:22:51.253Z,1013.22
2022-12-19T10:23:53.984Z,1013.25
2022-12-19T10:25:08.363Z,1013.25
2022-12-19T10:25:51.220Z,1013.30
2022-12-19T10:26:51.977Z,1013.28
2022-12-19T10:27:59.888Z,1013.26
2022-12-19T10:28:51.200Z,1013.20
2022-12-19T10:29:51.186Z,1013.25
2022-12-19T10:30:51.307Z,1013.24
2022-12-19T10:31:53.751Z,1013.18
2022-12-19T10:32:51.141Z,1013.13
2022-12-19T10:33:51.130Z,1013.16
2022-12-19T10:34:51.167Z,1013.19
2022-12-19T10:35:51.110Z,1013.19
2022-12-19T10:37:51.093Z,1013.15
2022-12-19T10:38:52.013Z,1013.11
2022-12-19T10:39:51.090Z,1013.15
2022-12-19T10:40:51.055Z,1013.14
2022-12-19T10:41:51.030Z,1013.20
2022-12-19T10:42:51.034Z,1013.16
2022-12-19T10:43:51.060Z,1013.10
2022-12-19T10:44:51.011Z,1013.10
2022-12-19T10:45:50.996Z,1013.06
2022-12-19T10:46:51.028Z,1013.03
2022-12-19T10:47:50.975Z,1012.93
2022-12-19T10:48:51.068Z,1012.94
2022-12-19T10:49:50.939Z,1012.96
2022-12-19T10:50:50.983Z,1012.97
2022-12-19T10:51:52.431Z,1013.03
2022-12-19T10:52:50.904Z,1013.00
2022-12-19T10:53:50.934Z,1013.04
2022-12-19T10:54:51.501Z,1012.98
2022-12-19T10:55:50.912Z,1012.95
2022-12-19T10:56:50.894Z,1012.92
2022-12-19T10:57:50.879Z,1013.01
2022-12-19T10:58:50.924Z,1012.98
2022-12-19T10:59:50.831Z,1013.05
2022-12-19T11:00:50.842Z,1013.01
2022-12-19T11:01:54.176Z,1013.05
2022-12-19T11:02:51.004Z,1013.03
2022-12-19T11:03:50.870Z,1013.00
2022-12-19T11:04:50.875Z,1012.97
2022-12-19T11:05:57.845Z,1012.93
2022-12-19T11:06:50.792Z,1012.95
2022-12-19T11:07:50.771Z,1012.99
2022-12-19T11:08:50.731Z,1012.94
2022-12-19T11:10:05.348Z,1012.95
2022-12-19T11:15:18.538Z,1012.94
2022-12-19T11:30:05.776Z,1012.92
2022-12-19T11:32:39.772Z,1012.87
2022-12-19T11:32:47.167Z,1012.88
2022-12-19T11:33:40.294Z,1012.86
2022-12-19T11:34:40.283Z,1012.90
2022-12-19T11:35:40.239Z,1012.84
2022-12-19T11:36:40.280Z,1012.83
2022-12-19T11:37:40.211Z,1012.81
2022-12-19T11:38:40.243Z,1012.76
2022-12-19T11:39:40.216Z,1012.81
2022-12-19T11:40:44.930Z,1012.77
2022-12-19T11:41:40.222Z,1012.79
2022-12-19T11:42:40.156Z,1012.78
2022-12-19T11:43:45.295Z,1012.80
2022-12-19T11:44:40.171Z,1012.82
2022-12-19T11:45:40.174Z,1012.85
2022-12-19T11:46:40.139Z,1012.87
2022-12-19T11:47:40.116Z,1012.89
2022-12-19T11:48:40.079Z,1012.92
2022-12-19T11:49:40.090Z,1012.94
2022-12-19T11:50:40.121Z,1012.94
2022-12-19T11:51:40.104Z,1012.82
2022-12-19T11:53:40.055Z,1012.84
2022-12-19T11:54:40.038Z,1012.83
2022-12-19T11:55:40.126Z,1012.80
2022-12-19T11:56:40.001Z,1012.85
2022-12-19T11:57:40.013Z,1012.90
2022-12-19T11:58:39.985Z,1012.89
2022-12-19T11:59:40.001Z,1012.92
2022-12-19T12:00:40.002Z,1012.94
2022-12-19T12:01:39.995Z,1012.85
2022-12-19T12:02:39.929Z,1012.88
2022-12-19T12:03:40.363Z,1012.87
2022-12-19T12:04:39.973Z,1012.90
2022-12-19T12:05:39.924Z,1012.91
2022-12-19T12:06:45.247Z,1012.93
2022-12-19T12:07:59.098Z,1012.99
2022-12-19T12:12:30.804Z,1012.96
2022-12-19T12:31:06.436Z,1012.92
2022-12-19T12:35:56.478Z,1012.49
2022-12-19T12:38:21.662Z,1012.33
2022-12-19T12:39:04.198Z,1012.35
2022-12-19T12:40:04.060Z,1012.32
2022-12-19T12:41:03.864Z,1012.38
2022-12-19T12:42:03.838Z,1012.33
2022-12-19T12:43:03.828Z,1012.37
2022-12-19T12:44:03.812Z,1012.36
2022-12-19T12:45:03.804Z,1012.38
2022-12-19T12:46:03.894Z,1012.43
2022-12-19T12:47:03.782Z,1012.39
2022-12-19T12:48:03.777Z,1012.39
2022-12-19T12:49:03.768Z,1012.47
2022-12-19T12:50:03.760Z,1012.43
2022-12-19T12:51:03.738Z,1012.51
2022-12-19T12:52:03.719Z,1012.43
2022-12-19T12:53:03.729Z,1012.42
2022-12-19T12:54:03.713Z,1012.44
2022-12-19T12:55:03.705Z,1012.48